sensor_id;sensor_type;location;lat;lon;timestamp;P1;durP1;ratioP1;P2;durP2;ratioP2
14748;SDS011;7466;53.574;9.976;2023-04-25T00:01:55;9.77;;;5.87;;
14748;SDS011;7466;53.574;9.976;2023-04-25T00:04:22;14.50;;;6.43;;
14748;SDS011;7466;53.574;9.976;2023-04-25T00:06:50;9.77;;;5.63;;
14748;SDS011;7466;53.574;9.976;2023-04-25T00:09:18;14.17;;;5.83;;
14748;SDS011;7466;53.574;9.976;2023-04-25T00:11:46;11.00;;;5.63;;
14748;SDS011;7466;53.574;9.976;2023-04-25T00:14:13;13.80;;;5.93;;
14748;SDS011;7466;53.574;9.976;2023-04-25T00:16:41;16.37;;;6.13;;
14748;SDS011;7466;53.574;9.976;2023-04-25T00:19:09;14.97;;;6.00;;
14748;SDS011;7466;53.574;9.976;2023-04-25T00:21:36;16.80;;;5.70;;
14748;SDS011;7466;53.574;9.976;2023-04-25T00:24:05;14.13;;;5.50;;
14748;SDS011;7466;53.574;9.976;2023-04-25T00:26:33;20.13;;;5.57;;
14748;SDS011;7466;53.574;9.976;2023-04-25T00:29:01;21.43;;;5.70;;
14748;SDS011;7466;53.574;9.976;2023-04-25T00:31:28;26.17;;;5.90;;
14748;SDS011;7466;53.574;9.976;2023-04-25T00:33:55;20.73;;;5.67;;
14748;SDS011;7466;53.574;9.976;2023-04-25T00:36:22;19.93;;;5.53;;
14748;SDS011;7466;53.574;9.976;2023-04-25T00:38:49;22.87;;;5.17;;
14748;SDS011;7466;53.574;9.976;2023-04-25T00:41:16;25.60;;;5.27;;
14748;SDS011;7466;53.574;9.976;2023-04-25T00:43:46;19.73;;;5.33;;
14748;SDS011;7466;53.574;9.976;2023-04-25T00:46:15;19.20;;;5.67;;
14748;SDS011;7466;53.574;9.976;2023-04-25T00:48:48;27.47;;;5.77;;
14748;SDS011;7466;53.574;9.976;2023-04-25T00:51:19;22.47;;;5.57;;
14748;SDS011;7466;53.574;9.976;2023-04-25T00:53:47;30.67;;;5.27;;
14748;SDS011;7466;53.574;9.976;2023-04-25T00:56:16;26.33;;;5.00;;
14748;SDS011;7466;53.574;9.976;2023-04-25T00:58:42;23.67;;;4.90;;
14748;SDS011;7466;53.574;9.976;2023-04-25T01:01:10;26.30;;;4.57;;
14748;SDS011;7466;53.574;9.976;2023-04-25T01:03:39;26.13;;;5.13;;
14748;SDS011;7466;53.574;9.976;2023-04-25T01:06:07;21.87;;;4.77;;
14748;SDS011;7466;53.574;9.976;2023-04-25T01:08:35;28.20;;;5.73;;
14748;SDS011;7466;53.574;9.976;2023-04-25T01:11:03;21.57;;;5.07;;
14748;SDS011;7466;53.574;9.976;2023-04-25T01:13:30;22.00;;;6.03;;
14748;SDS011;7466;53.574;9.976;2023-04-25T01:15:57;23.77;;;5.60;;
14748;SDS011;7466;53.574;9.976;2023-04-25T01:18:25;21.97;;;5.00;;
14748;SDS011;7466;53.574;9.976;2023-04-25T01:20:54;24.13;;;5.07;;
14748;SDS011;7466;53.574;9.976;2023-04-25T01:23:23;26.47;;;5.00;;
14748;SDS011;7466;53.574;9.976;2023-04-25T01:25:50;26.30;;;5.47;;
14748;SDS011;7466;53.574;9.976;2023-04-25T01:28:17;20.13;;;4.57;;
14748;SDS011;7466;53.574;9.976;2023-04-25T01:30:44;22.70;;;5.50;;
14748;SDS011;7466;53.574;9.976;2023-04-25T01:33:11;18.53;;;4.90;;
14748;SDS011;7466;53.574;9.976;2023-04-25T01:35:39;25.40;;;5.40;;
14748;SDS011;7466;53.574;9.976;2023-04-25T01:38:06;26.70;;;5.27;;
14748;SDS011;7466;53.574;9.976;2023-04-25T01:40:35;24.33;;;5.40;;
14748;SDS011;7466;53.574;9.976;2023-04-25T01:43:06;33.37;;;6.07;;
14748;SDS011;7466;53.574;9.976;2023-04-25T01:45:36;25.23;;;5.40;;
14748;SDS011;7466;53.574;9.976;2023-04-25T01:48:04;26.80;;;5.33;;
14748;SDS011;7466;53.574;9.976;2023-04-25T01:50:31;26.93;;;5.97;;
14748;SDS011;7466;53.574;9.976;2023-04-25T01:52:58;31.63;;;5.40;;
14748;SDS011;7466;53.574;9.976;2023-04-25T01:55:26;27.67;;;5.63;;
14748;SDS011;7466;53.574;9.976;2023-04-25T01:57:56;26.70;;;5.43;;
14748;SDS011;7466;53.574;9.976;2023-04-25T02:00:23;27.93;;;6.20;;
14748;SDS011;7466;53.574;9.976;2023-04-25T02:02:50;30.23;;;5.43;;
14748;SDS011;7466;53.574;9.976;2023-04-25T02:05:18;23.60;;;5.43;;
14748;SDS011;7466;53.574;9.976;2023-04-25T02:07:46;23.13;;;4.97;;
14748;SDS011;7466;53.574;9.976;2023-04-25T02:10:14;22.27;;;5.00;;
14748;SDS011;7466;53.574;9.976;2023-04-25T02:12:41;24.27;;;5.83;;
14748;SDS011;7466;53.574;9.976;2023-04-25T02:15:10;24.60;;;5.70;;
14748;SDS011;7466;53.574;9.976;2023-04-25T02:17:37;32.37;;;5.40;;
14748;SDS011;7466;53.574;9.976;2023-04-25T02:20:04;23.20;;;5.10;;
14748;SDS011;7466;53.574;9.976;2023-04-25T02:22:32;21.97;;;5.40;;
14748;SDS011;7466;53.574;9.976;2023-04-25T02:25:00;20.20;;;4.53;;
14748;SDS011;7466;53.574;9.976;2023-04-25T02:27:29;26.23;;;5.47;;
14748;SDS011;7466;53.574;9.976;2023-04-25T02:29:56;24.93;;;4.93;;
14748;SDS011;7466;53.574;9.976;2023-04-25T02:32:24;21.67;;;4.70;;
14748;SDS011;7466;53.574;9.976;2023-04-25T02:34:51;28.83;;;5.03;;
14748;SDS011;7466;53.574;9.976;2023-04-25T02:37:18;28.10;;;6.03;;
14748;SDS011;7466;53.574;9.976;2023-04-25T02:39:45;22.33;;;5.17;;
14748;SDS011;7466;53.574;9.976;2023-04-25T02:42:12;28.80;;;5.63;;
14748;SDS011;7466;53.574;9.976;2023-04-25T02:44:39;24.73;;;5.37;;
14748;SDS011;7466;53.574;9.976;2023-04-25T02:47:06;28.93;;;5.20;;
14748;SDS011;7466;53.574;9.976;2023-04-25T02:49:34;26.33;;;5.23;;
14748;SDS011;7466;53.574;9.976;2023-04-25T02:52:01;19.47;;;4.87;;
14748;SDS011;7466;53.574;9.976;2023-04-25T02:54:28;23.97;;;5.53;;
14748;SDS011;7466;53.574;9.976;2023-04-25T02:56:55;25.90;;;4.40;;
14748;SDS011;7466;53.574;9.976;2023-04-25T02:59:22;19.63;;;4.43;;
14748;SDS011;7466;53.574;9.976;2023-04-25T03:01:49;22.03;;;4.60;;
14748;SDS011;7466;53.574;9.976;2023-04-25T03:04:16;19.20;;;4.50;;
14748;SDS011;7466;53.574;9.976;2023-04-25T03:06:45;23.13;;;4.90;;
14748;SDS011;7466;53.574;9.976;2023-04-25T03:09:12;20.10;;;4.60;;
14748;SDS011;7466;53.574;9.976;2023-04-25T03:11:39;21.13;;;4.40;;
14748;SDS011;7466;53.574;9.976;2023-04-25T03:14:06;21.23;;;4.87;;
14748;SDS011;7466;53.574;9.976;2023-04-25T03:16:32;21.53;;;4.70;;
14748;SDS011;7466;53.574;9.976;2023-04-25T03:18:59;17.40;;;4.80;;
14748;SDS011;7466;53.574;9.976;2023-04-25T03:21:41;12.90;;;4.10;;
14748;SDS011;7466;53.574;9.976;2023-04-25T03:24:09;22.20;;;4.30;;
14748;SDS011;7466;53.574;9.976;2023-04-25T03:26:36;20.87;;;4.20;;
14748;SDS011;7466;53.574;9.976;2023-04-25T03:29:03;22.77;;;4.67;;
14748;SDS011;7466;53.574;9.976;2023-04-25T03:31:30;19.03;;;4.10;;
14748;SDS011;7466;53.574;9.976;2023-04-25T03:33:57;21.27;;;4.03;;
14748;SDS011;7466;53.574;9.976;2023-04-25T03:36:24;19.63;;;4.47;;
14748;SDS011;7466;53.574;9.976;2023-04-25T03:38:51;21.27;;;4.57;;
14748;SDS011;7466;53.574;9.976;2023-04-25T03:41:20;18.37;;;4.40;;
14748;SDS011;7466;53.574;9.976;2023-04-25T03:43:46;18.93;;;4.53;;
14748;SDS011;7466;53.574;9.976;2023-04-25T03:46:13;24.60;;;4.73;;
14748;SDS011;7466;53.574;9.976;2023-04-25T03:48:40;20.73;;;4.60;;
14748;SDS011;7466;53.574;9.976;2023-04-25T03:51:07;16.57;;;4.37;;
14748;SDS011;7466;53.574;9.976;2023-04-25T03:53:34;26.10;;;4.77;;
14748;SDS011;7466;53.574;9.976;2023-04-25T03:56:01;19.07;;;3.90;;
14748;SDS011;7466;53.574;9.976;2023-04-25T03:58:29;19.13;;;4.33;;
14748;SDS011;7466;53.574;9.976;2023-04-25T04:00:56;15.97;;;4.47;;
14748;SDS011;7466;53.574;9.976;2023-04-25T04:03:23;18.67;;;4.30;;
14748;SDS011;7466;53.574;9.976;2023-04-25T04:05:50;15.60;;;3.80;;
14748;SDS011;7466;53.574;9.976;2023-04-25T04:08:17;13.50;;;4.03;;
14748;SDS011;7466;53.574;9.976;2023-04-25T04:10:43;19.73;;;3.87;;
14748;SDS011;7466;53.574;9.976;2023-04-25T04:13:11;15.60;;;4.33;;
14748;SDS011;7466;53.574;9.976;2023-04-25T04:15:40;21.40;;;3.73;;
14748;SDS011;7466;53.574;9.976;2023-04-25T04:18:06;16.77;;;3.50;;
14748;SDS011;7466;53.574;9.976;2023-04-25T04:20:33;17.27;;;4.63;;
14748;SDS011;7466;53.574;9.976;2023-04-25T04:23:01;19.83;;;4.57;;
14748;SDS011;7466;53.574;9.976;2023-04-25T04:25:28;17.53;;;4.17;;
14748;SDS011;7466;53.574;9.976;2023-04-25T04:27:55;19.63;;;4.20;;
14748;SDS011;7466;53.574;9.976;2023-04-25T04:30:22;14.10;;;3.47;;
14748;SDS011;7466;53.574;9.976;2023-04-25T04:32:51;26.43;;;4.30;;
14748;SDS011;7466;53.574;9.976;2023-04-25T04:35:18;19.23;;;4.20;;
14748;SDS011;7466;53.574;9.976;2023-04-25T04:37:45;14.57;;;3.27;;
14748;SDS011;7466;53.574;9.976;2023-04-25T04:40:13;13.00;;;3.20;;
14748;SDS011;7466;53.574;9.976;2023-04-25T04:42:41;19.63;;;3.60;;
14748;SDS011;7466;53.574;9.976;2023-04-25T04:45:08;19.27;;;3.70;;
14748;SDS011;7466;53.574;9.976;2023-04-25T04:47:36;14.63;;;3.50;;
14748;SDS011;7466;53.574;9.976;2023-04-25T04:50:06;21.67;;;3.80;;
14748;SDS011;7466;53.574;9.976;2023-04-25T04:52:34;16.00;;;3.70;;
14748;SDS011;7466;53.574;9.976;2023-04-25T04:55:02;12.77;;;3.57;;
14748;SDS011;7466;53.574;9.976;2023-04-25T04:57:29;13.60;;;3.73;;
14748;SDS011;7466;53.574;9.976;2023-04-25T04:59:58;28.53;;;4.73;;
14748;SDS011;7466;53.574;9.976;2023-04-25T05:02:25;18.50;;;3.63;;
14748;SDS011;7466;53.574;9.976;2023-04-25T05:04:52;16.40;;;4.10;;
14748;SDS011;7466;53.574;9.976;2023-04-25T05:07:21;18.17;;;3.43;;
14748;SDS011;7466;53.574;9.976;2023-04-25T05:09:47;15.80;;;3.37;;
14748;SDS011;7466;53.574;9.976;2023-04-25T05:12:14;15.77;;;3.80;;
14748;SDS011;7466;53.574;9.976;2023-04-25T05:14:41;17.23;;;3.50;;
14748;SDS011;7466;53.574;9.976;2023-04-25T05:17:09;20.87;;;3.73;;
14748;SDS011;7466;53.574;9.976;2023-04-25T05:19:36;14.07;;;3.93;;
14748;SDS011;7466;53.574;9.976;2023-04-25T05:22:04;16.50;;;3.83;;
14748;SDS011;7466;53.574;9.976;2023-04-25T05:24:32;10.77;;;3.83;;
14748;SDS011;7466;53.574;9.976;2023-04-25T05:26:59;15.70;;;4.10;;
14748;SDS011;7466;53.574;9.976;2023-04-25T05:29:26;13.77;;;3.50;;
14748;SDS011;7466;53.574;9.976;2023-04-25T05:31:53;12.80;;;3.50;;
14748;SDS011;7466;53.574;9.976;2023-04-25T05:34:20;14.60;;;3.50;;
14748;SDS011;7466;53.574;9.976;2023-04-25T05:36:47;16.60;;;4.13;;
14748;SDS011;7466;53.574;9.976;2023-04-25T05:39:14;20.73;;;4.37;;
14748;SDS011;7466;53.574;9.976;2023-04-25T05:41:43;15.67;;;4.43;;
14748;SDS011;7466;53.574;9.976;2023-04-25T05:44:10;12.80;;;3.53;;
14748;SDS011;7466;53.574;9.976;2023-04-25T05:46:37;15.73;;;3.30;;
14748;SDS011;7466;53.574;9.976;2023-04-25T05:49:04;16.63;;;3.60;;
14748;SDS011;7466;53.574;9.976;2023-04-25T05:51:32;15.23;;;3.70;;
14748;SDS011;7466;53.574;9.976;2023-04-25T05:54:05;20.73;;;3.80;;
14748;SDS011;7466;53.574;9.976;2023-04-25T05:56:32;16.17;;;3.93;;
14748;SDS011;7466;53.574;9.976;2023-04-25T05:59:00;22.17;;;4.40;;
14748;SDS011;7466;53.574;9.976;2023-04-25T06:01:28;11.30;;;3.30;;
14748;SDS011;7466;53.574;9.976;2023-04-25T06:03:55;11.60;;;3.37;;
14748;SDS011;7466;53.574;9.976;2023-04-25T06:06:22;15.27;;;3.13;;
14748;SDS011;7466;53.574;9.976;2023-04-25T06:08:50;12.50;;;3.70;;
14748;SDS011;7466;53.574;9.976;2023-04-25T06:11:17;13.63;;;3.80;;
14748;SDS011;7466;53.574;9.976;2023-04-25T06:13:45;15.10;;;4.10;;
14748;SDS011;7466;53.574;9.976;2023-04-25T06:16:13;13.40;;;3.90;;
14748;SDS011;7466;53.574;9.976;2023-04-25T06:18:40;11.43;;;3.03;;
14748;SDS011;7466;53.574;9.976;2023-04-25T06:21:07;18.33;;;3.70;;
14748;SDS011;7466;53.574;9.976;2023-04-25T06:23:35;15.73;;;3.40;;
14748;SDS011;7466;53.574;9.976;2023-04-25T06:26:02;10.20;;;3.50;;
14748;SDS011;7466;53.574;9.976;2023-04-25T06:28:29;11.43;;;3.47;;
14748;SDS011;7466;53.574;9.976;2023-04-25T06:30:56;12.43;;;3.30;;
14748;SDS011;7466;53.574;9.976;2023-04-25T06:33:24;16.17;;;3.90;;
14748;SDS011;7466;53.574;9.976;2023-04-25T06:35:52;9.70;;;3.33;;
14748;SDS011;7466;53.574;9.976;2023-04-25T06:38:19;12.60;;;3.50;;
14748;SDS011;7466;53.574;9.976;2023-04-25T06:40:45;18.37;;;4.10;;
14748;SDS011;7466;53.574;9.976;2023-04-25T06:43:12;12.00;;;3.90;;
14748;SDS011;7466;53.574;9.976;2023-04-25T06:45:39;10.00;;;3.13;;
14748;SDS011;7466;53.574;9.976;2023-04-25T06:48:07;11.40;;;3.30;;
14748;SDS011;7466;53.574;9.976;2023-04-25T06:50:35;16.20;;;4.30;;
14748;SDS011;7466;53.574;9.976;2023-04-25T06:53:02;13.30;;;3.27;;
14748;SDS011;7466;53.574;9.976;2023-04-25T06:55:30;13.33;;;3.00;;
14748;SDS011;7466;53.574;9.976;2023-04-25T06:57:57;16.67;;;3.73;;
14748;SDS011;7466;53.574;9.976;2023-04-25T07:00:24;10.67;;;3.17;;
14748;SDS011;7466;53.574;9.976;2023-04-25T07:02:51;8.40;;;2.93;;
14748;SDS011;7466;53.574;9.976;2023-04-25T07:05:18;9.33;;;3.20;;
14748;SDS011;7466;53.574;9.976;2023-04-25T07:07:46;9.57;;;2.60;;
14748;SDS011;7466;53.574;9.976;2023-04-25T07:10:13;12.50;;;2.93;;
14748;SDS011;7466;53.574;9.976;2023-04-25T07:12:40;12.00;;;2.80;;
14748;SDS011;7466;53.574;9.976;2023-04-25T07:15:07;9.97;;;2.67;;
14748;SDS011;7466;53.574;9.976;2023-04-25T07:17:35;8.63;;;3.10;;
14748;SDS011;7466;53.574;9.976;2023-04-25T07:20:02;14.80;;;3.40;;
14748;SDS011;7466;53.574;9.976;2023-04-25T07:22:30;15.33;;;3.20;;
14748;SDS011;7466;53.574;9.976;2023-04-25T07:24:59;12.70;;;3.00;;
14748;SDS011;7466;53.574;9.976;2023-04-25T07:27:25;10.87;;;2.70;;
14748;SDS011;7466;53.574;9.976;2023-04-25T07:29:54;10.33;;;2.57;;
14748;SDS011;7466;53.574;9.976;2023-04-25T07:32:21;13.10;;;2.63;;
14748;SDS011;7466;53.574;9.976;2023-04-25T07:34:48;10.43;;;2.50;;
14748;SDS011;7466;53.574;9.976;2023-04-25T07:37:15;9.10;;;2.63;;
14748;SDS011;7466;53.574;9.976;2023-04-25T07:39:46;12.90;;;2.60;;
14748;SDS011;7466;53.574;9.976;2023-04-25T07:42:14;11.37;;;2.63;;
14748;SDS011;7466;53.574;9.976;2023-04-25T07:44:41;9.40;;;2.50;;
14748;SDS011;7466;53.574;9.976;2023-04-25T07:47:08;10.67;;;2.77;;
14748;SDS011;7466;53.574;9.976;2023-04-25T07:49:36;11.27;;;2.80;;
14748;SDS011;7466;53.574;9.976;2023-04-25T07:52:04;9.43;;;2.70;;
14748;SDS011;7466;53.574;9.976;2023-04-25T07:54:37;14.93;;;3.10;;
14748;SDS011;7466;53.574;9.976;2023-04-25T07:57:07;8.30;;;2.43;;
14748;SDS011;7466;53.574;9.976;2023-04-25T07:59:36;10.33;;;2.77;;
14748;SDS011;7466;53.574;9.976;2023-04-25T08:02:03;8.73;;;2.27;;
14748;SDS011;7466;53.574;9.976;2023-04-25T08:04:30;11.83;;;2.60;;
14748;SDS011;7466;53.574;9.976;2023-04-25T08:06:57;9.47;;;2.67;;
14748;SDS011;7466;53.574;9.976;2023-04-25T08:09:24;11.13;;;2.90;;
14748;SDS011;7466;53.574;9.976;2023-04-25T08:11:51;10.47;;;2.63;;
14748;SDS011;7466;53.574;9.976;2023-04-25T08:14:18;7.27;;;2.20;;
14748;SDS011;7466;53.574;9.976;2023-04-25T08:16:46;10.23;;;2.53;;
14748;SDS011;7466;53.574;9.976;2023-04-25T08:19:13;13.87;;;2.77;;
14748;SDS011;7466;53.574;9.976;2023-04-25T08:21:41;8.93;;;2.90;;
14748;SDS011;7466;53.574;9.976;2023-04-25T08:24:15;9.23;;;2.30;;
14748;SDS011;7466;53.574;9.976;2023-04-25T08:26:42;9.27;;;2.67;;
14748;SDS011;7466;53.574;9.976;2023-04-25T08:29:09;9.00;;;2.70;;
14748;SDS011;7466;53.574;9.976;2023-04-25T08:31:36;13.40;;;2.70;;
14748;SDS011;7466;53.574;9.976;2023-04-25T08:34:04;11.30;;;2.60;;
14748;SDS011;7466;53.574;9.976;2023-04-25T08:36:32;7.87;;;2.20;;
14748;SDS011;7466;53.574;9.976;2023-04-25T08:38:59;12.00;;;2.50;;
14748;SDS011;7466;53.574;9.976;2023-04-25T08:41:26;9.30;;;2.30;;
14748;SDS011;7466;53.574;9.976;2023-04-25T08:43:54;6.97;;;2.17;;
14748;SDS011;7466;53.574;9.976;2023-04-25T08:46:23;9.40;;;2.57;;
14748;SDS011;7466;53.574;9.976;2023-04-25T08:48:51;10.23;;;2.70;;
14748;SDS011;7466;53.574;9.976;2023-04-25T08:51:32;13.87;;;2.50;;
14748;SDS011;7466;53.574;9.976;2023-04-25T08:54:01;10.50;;;2.83;;
14748;SDS011;7466;53.574;9.976;2023-04-25T08:56:34;8.83;;;2.33;;
14748;SDS011;7466;53.574;9.976;2023-04-25T08:59:01;8.57;;;2.13;;
14748;SDS011;7466;53.574;9.976;2023-04-25T09:01:28;6.80;;;2.77;;
14748;SDS011;7466;53.574;9.976;2023-04-25T09:03:56;9.97;;;2.60;;
14748;SDS011;7466;53.574;9.976;2023-04-25T09:06:23;11.60;;;2.50;;
14748;SDS011;7466;53.574;9.976;2023-04-25T09:08:52;8.43;;;2.37;;
14748;SDS011;7466;53.574;9.976;2023-04-25T09:11:19;4.03;;;1.80;;
14748;SDS011;7466;53.574;9.976;2023-04-25T09:13:46;6.43;;;2.57;;
14748;SDS011;7466;53.574;9.976;2023-04-25T09:16:13;8.37;;;2.20;;
14748;SDS011;7466;53.574;9.976;2023-04-25T09:18:42;6.93;;;2.53;;
14748;SDS011;7466;53.574;9.976;2023-04-25T09:21:10;6.07;;;2.03;;
14748;SDS011;7466;53.574;9.976;2023-04-25T09:23:44;6.97;;;2.13;;
14748;SDS011;7466;53.574;9.976;2023-04-25T09:26:15;8.40;;;2.20;;
14748;SDS011;7466;53.574;9.976;2023-04-25T09:28:43;7.87;;;2.17;;
14748;SDS011;7466;53.574;9.976;2023-04-25T09:31:11;7.80;;;2.00;;
14748;SDS011;7466;53.574;9.976;2023-04-25T09:33:45;7.70;;;2.30;;
14748;SDS011;7466;53.574;9.976;2023-04-25T09:36:13;10.20;;;2.87;;
14748;SDS011;7466;53.574;9.976;2023-04-25T09:38:41;15.67;;;2.93;;
14748;SDS011;7466;53.574;9.976;2023-04-25T09:41:10;9.13;;;2.40;;
14748;SDS011;7466;53.574;9.976;2023-04-25T09:43:39;10.07;;;2.30;;
14748;SDS011;7466;53.574;9.976;2023-04-25T09:46:11;8.20;;;2.43;;
14748;SDS011;7466;53.574;9.976;2023-04-25T09:48:38;7.13;;;2.33;;
14748;SDS011;7466;53.574;9.976;2023-04-25T09:51:08;7.87;;;2.20;;
14748;SDS011;7466;53.574;9.976;2023-04-25T09:53:36;10.17;;;2.30;;
14748;SDS011;7466;53.574;9.976;2023-04-25T09:56:05;8.60;;;2.50;;
14748;SDS011;7466;53.574;9.976;2023-04-25T09:58:34;9.87;;;2.47;;
14748;SDS011;7466;53.574;9.976;2023-04-25T10:01:04;7.63;;;2.23;;
14748;SDS011;7466;53.574;9.976;2023-04-25T10:03:33;9.27;;;2.07;;
14748;SDS011;7466;53.574;9.976;2023-04-25T10:06:01;11.93;;;2.20;;
14748;SDS011;7466;53.574;9.976;2023-04-25T10:08:34;12.23;;;2.60;;
14748;SDS011;7466;53.574;9.976;2023-04-25T10:11:03;4.07;;;1.87;;
14748;SDS011;7466;53.574;9.976;2023-04-25T10:13:31;8.33;;;2.10;;
14748;SDS011;7466;53.574;9.976;2023-04-25T10:16:00;7.27;;;2.23;;
14748;SDS011;7466;53.574;9.976;2023-04-25T10:18:30;6.60;;;1.87;;
14748;SDS011;7466;53.574;9.976;2023-04-25T10:21:01;5.67;;;1.70;;
14748;SDS011;7466;53.574;9.976;2023-04-25T10:23:35;3.33;;;1.40;;
14748;SDS011;7466;53.574;9.976;2023-04-25T10:26:03;7.73;;;1.57;;
14748;SDS011;7466;53.574;9.976;2023-04-25T10:31:25;5.37;;;1.90;;
14748;SDS011;7466;53.574;9.976;2023-04-25T10:34:13;8.80;;;2.17;;
14748;SDS011;7466;53.574;9.976;2023-04-25T10:36:39;6.33;;;2.20;;
14748;SDS011;7466;53.574;9.976;2023-04-25T10:39:06;6.90;;;2.10;;
14748;SDS011;7466;53.574;9.976;2023-04-25T10:41:45;7.10;;;2.20;;
14748;SDS011;7466;53.574;9.976;2023-04-25T10:44:13;8.23;;;2.17;;
14748;SDS011;7466;53.574;9.976;2023-04-25T10:46:41;6.30;;;1.80;;
14748;SDS011;7466;53.574;9.976;2023-04-25T10:49:10;8.20;;;1.90;;
14748;SDS011;7466;53.574;9.976;2023-04-25T10:51:47;9.53;;;2.20;;
14748;SDS011;7466;53.574;9.976;2023-04-25T10:54:13;6.63;;;1.93;;
14748;SDS011;7466;53.574;9.976;2023-04-25T10:56:45;4.80;;;1.83;;
14748;SDS011;7466;53.574;9.976;2023-04-25T10:59:12;9.30;;;2.30;;
14748;SDS011;7466;53.574;9.976;2023-04-25T11:01:41;7.50;;;2.30;;
14748;SDS011;7466;53.574;9.976;2023-04-25T11:04:19;8.37;;;2.30;;
14748;SDS011;7466;53.574;9.976;2023-04-25T11:06:51;7.57;;;1.83;;
14748;SDS011;7466;53.574;9.976;2023-04-25T11:09:26;9.53;;;2.00;;
14748;SDS011;7466;53.574;9.976;2023-04-25T11:11:54;7.07;;;2.10;;
14748;SDS011;7466;53.574;9.976;2023-04-25T11:14:21;7.70;;;1.83;;
14748;SDS011;7466;53.574;9.976;2023-04-25T11:16:52;8.73;;;2.20;;
14748;SDS011;7466;53.574;9.976;2023-04-25T11:19:20;6.17;;;1.90;;
14748;SDS011;7466;53.574;9.976;2023-04-25T11:21:47;6.23;;;2.20;;
14748;SDS011;7466;53.574;9.976;2023-04-25T11:24:16;5.30;;;2.00;;
14748;SDS011;7466;53.574;9.976;2023-04-25T11:26:43;7.97;;;2.33;;
14748;SDS011;7466;53.574;9.976;2023-04-25T11:29:12;5.37;;;1.73;;
14748;SDS011;7466;53.574;9.976;2023-04-25T11:31:42;4.87;;;1.83;;
14748;SDS011;7466;53.574;9.976;2023-04-25T11:34:10;6.47;;;1.80;;
14748;SDS011;7466;53.574;9.976;2023-04-25T11:36:38;5.40;;;1.30;;
14748;SDS011;7466;53.574;9.976;2023-04-25T11:39:05;4.70;;;1.70;;
14748;SDS011;7466;53.574;9.976;2023-04-25T11:41:33;4.10;;;1.57;;
14748;SDS011;7466;53.574;9.976;2023-04-25T11:44:00;6.73;;;1.43;;
14748;SDS011;7466;53.574;9.976;2023-04-25T11:46:27;2.60;;;1.30;;
14748;SDS011;7466;53.574;9.976;2023-04-25T11:48:54;4.27;;;1.23;;
14748;SDS011;7466;53.574;9.976;2023-04-25T11:51:23;5.00;;;1.43;;
14748;SDS011;7466;53.574;9.976;2023-04-25T11:53:50;5.03;;;1.40;;
14748;SDS011;7466;53.574;9.976;2023-04-25T11:56:17;4.13;;;1.30;;
14748;SDS011;7466;53.574;9.976;2023-04-25T11:58:55;7.63;;;1.63;;
14748;SDS011;7466;53.574;9.976;2023-04-25T12:01:26;5.20;;;1.40;;
14748;SDS011;7466;53.574;9.976;2023-04-25T12:03:55;6.40;;;1.53;;
14748;SDS011;7466;53.574;9.976;2023-04-25T12:06:25;5.40;;;1.53;;
14748;SDS011;7466;53.574;9.976;2023-04-25T12:09:02;4.73;;;1.77;;
14748;SDS011;7466;53.574;9.976;2023-04-25T12:11:30;6.47;;;1.83;;
14748;SDS011;7466;53.574;9.976;2023-04-25T12:14:02;3.80;;;1.30;;
14748;SDS011;7466;53.574;9.976;2023-04-25T12:16:39;2.87;;;1.30;;
14748;SDS011;7466;53.574;9.976;2023-04-25T12:19:07;1.80;;;1.13;;
14748;SDS011;7466;53.574;9.976;2023-04-25T12:21:34;7.33;;;1.70;;
14748;SDS011;7466;53.574;9.976;2023-04-25T12:24:11;3.87;;;1.47;;
14748;SDS011;7466;53.574;9.976;2023-04-25T12:26:46;2.77;;;1.30;;
14748;SDS011;7466;53.574;9.976;2023-04-25T12:29:20;7.37;;;1.47;;
14748;SDS011;7466;53.574;9.976;2023-04-25T12:31:48;5.17;;;1.40;;
14748;SDS011;7466;53.574;9.976;2023-04-25T12:34:16;3.10;;;1.50;;
14748;SDS011;7466;53.574;9.976;2023-04-25T12:36:43;4.87;;;1.67;;
14748;SDS011;7466;53.574;9.976;2023-04-25T12:39:14;6.13;;;1.53;;
14748;SDS011;7466;53.574;9.976;2023-04-25T12:41:41;4.40;;;1.60;;
14748;SDS011;7466;53.574;9.976;2023-04-25T12:44:08;4.67;;;1.60;;
14748;SDS011;7466;53.574;9.976;2023-04-25T12:46:36;5.60;;;1.80;;
14748;SDS011;7466;53.574;9.976;2023-04-25T12:49:04;2.77;;;1.20;;
14748;SDS011;7466;53.574;9.976;2023-04-25T12:51:33;4.57;;;1.90;;
14748;SDS011;7466;53.574;9.976;2023-04-25T12:54:00;6.23;;;2.30;;
14748;SDS011;7466;53.574;9.976;2023-04-25T12:56:28;6.43;;;1.60;;
14748;SDS011;7466;53.574;9.976;2023-04-25T12:58:55;6.30;;;1.70;;
14748;SDS011;7466;53.574;9.976;2023-04-25T13:01:22;5.80;;;1.80;;
14748;SDS011;7466;53.574;9.976;2023-04-25T13:03:51;7.23;;;1.60;;
14748;SDS011;7466;53.574;9.976;2023-04-25T13:06:19;3.93;;;1.70;;
14748;SDS011;7466;53.574;9.976;2023-04-25T13:08:46;5.67;;;1.60;;
14748;SDS011;7466;53.574;9.976;2023-04-25T13:11:13;3.43;;;2.10;;
14748;SDS011;7466;53.574;9.976;2023-04-25T13:13:40;3.17;;;1.80;;
14748;SDS011;7466;53.574;9.976;2023-04-25T13:16:09;5.70;;;1.73;;
14748;SDS011;7466;53.574;9.976;2023-04-25T13:18:37;2.97;;;1.60;;
14748;SDS011;7466;53.574;9.976;2023-04-25T13:21:05;3.37;;;1.80;;
14748;SDS011;7466;53.574;9.976;2023-04-25T13:23:34;4.27;;;1.50;;
14748;SDS011;7466;53.574;9.976;2023-04-25T13:26:03;5.73;;;2.10;;
14748;SDS011;7466;53.574;9.976;2023-04-25T13:28:30;6.33;;;1.87;;
14748;SDS011;7466;53.574;9.976;2023-04-25T13:30:57;5.93;;;2.00;;
14748;SDS011;7466;53.574;9.976;2023-04-25T13:33:24;7.87;;;1.90;;
14748;SDS011;7466;53.574;9.976;2023-04-25T13:35:51;3.63;;;1.63;;
14748;SDS011;7466;53.574;9.976;2023-04-25T13:38:22;9.20;;;2.00;;
14748;SDS011;7466;53.574;9.976;2023-04-25T13:40:50;6.87;;;1.70;;
14748;SDS011;7466;53.574;9.976;2023-04-25T13:43:18;2.07;;;1.60;;
14748;SDS011;7466;53.574;9.976;2023-04-25T13:45:46;5.00;;;2.03;;
14748;SDS011;7466;53.574;9.976;2023-04-25T13:48:13;5.93;;;2.30;;
14748;SDS011;7466;53.574;9.976;2023-04-25T13:50:40;5.07;;;2.00;;
14748;SDS011;7466;53.574;9.976;2023-04-25T13:53:07;6.40;;;1.80;;
14748;SDS011;7466;53.574;9.976;2023-04-25T13:55:36;4.10;;;1.60;;
14748;SDS011;7466;53.574;9.976;2023-04-25T13:58:03;2.70;;;1.30;;
14748;SDS011;7466;53.574;9.976;2023-04-25T14:00:33;2.83;;;1.50;;
14748;SDS011;7466;53.574;9.976;2023-04-25T14:03:01;3.13;;;1.70;;
14748;SDS011;7466;53.574;9.976;2023-04-25T14:05:31;2.67;;;1.70;;
14748;SDS011;7466;53.574;9.976;2023-04-25T14:08:02;5.40;;;1.83;;
14748;SDS011;7466;53.574;9.976;2023-04-25T14:10:30;6.80;;;2.00;;
14748;SDS011;7466;53.574;9.976;2023-04-25T14:12:59;7.93;;;2.20;;
14748;SDS011;7466;53.574;9.976;2023-04-25T14:15:28;4.23;;;1.60;;
14748;SDS011;7466;53.574;9.976;2023-04-25T14:17:58;5.90;;;2.23;;
14748;SDS011;7466;53.574;9.976;2023-04-25T14:20:26;4.43;;;1.63;;
14748;SDS011;7466;53.574;9.976;2023-04-25T14:22:53;5.27;;;2.20;;
14748;SDS011;7466;53.574;9.976;2023-04-25T14:25:21;6.10;;;1.90;;
14748;SDS011;7466;53.574;9.976;2023-04-25T14:27:48;6.83;;;1.50;;
14748;SDS011;7466;53.574;9.976;2023-04-25T14:30:17;7.90;;;2.10;;
14748;SDS011;7466;53.574;9.976;2023-04-25T14:32:44;6.43;;;2.33;;
14748;SDS011;7466;53.574;9.976;2023-04-25T14:35:11;5.13;;;1.87;;
14748;SDS011;7466;53.574;9.976;2023-04-25T14:37:39;6.20;;;2.30;;
14748;SDS011;7466;53.574;9.976;2023-04-25T14:40:06;4.60;;;1.80;;
14748;SDS011;7466;53.574;9.976;2023-04-25T14:42:36;7.13;;;1.57;;
14748;SDS011;7466;53.574;9.976;2023-04-25T14:45:06;4.23;;;1.77;;
14748;SDS011;7466;53.574;9.976;2023-04-25T14:47:37;4.43;;;1.63;;
14748;SDS011;7466;53.574;9.976;2023-04-25T14:50:05;7.50;;;1.73;;
14748;SDS011;7466;53.574;9.976;2023-04-25T14:52:34;4.23;;;1.80;;
14748;SDS011;7466;53.574;9.976;2023-04-25T14:55:01;6.43;;;1.50;;
14748;SDS011;7466;53.574;9.976;2023-04-25T14:57:38;6.23;;;1.57;;
14748;SDS011;7466;53.574;9.976;2023-04-25T15:00:07;4.50;;;1.57;;
14748;SDS011;7466;53.574;9.976;2023-04-25T15:02:36;4.57;;;1.70;;